Time;durP1;ratioP1;P1;durP2;ratioP2;P2;SDS_P1;SDS_P2;PMS_P1;PMS_P2;Temp;Humidity;BMP_temperature;BMP_pressure;BME280_temperature;BME280_humidity;BME280_pressure;Samples;Min_cycle;Max_cycle;Signal;HPM_P1;HPM_P2
2021/03/12 00:01:03;;;;;;;0.00;0.00;;;;;;;;;;5032635;28;20277;-60
2021/03/12 00:03:34;;;;;;;1.50;0.73;;;;;;;;;;5035609;28;20205;-60
2021/03/12 00:06:03;;;;;;;0.00;0.00;;;;;;;;;;5025214;28;20178;-59
2021/03/12 00:08:37;;;;;;;6.80;0.67;;;;;;;;;;5028115;28;20191;-60
2021/03/12 00:11:05;;;;;;;0.10;0.10;;;;;;;;;;5034453;28;20174;-59
2021/03/12 00:13:32;;;;;;;0.83;0.20;;;;;;;;;;5036253;28;20971;-59
2021/03/12 00:16:00;;;;;;;1.50;1.50;;;;;;;;;;5031714;28;20757;-60
2021/03/12 00:18:29;;;;;;;0.00;0.00;;;;;;;;;;5036083;28;20209;-60
2021/03/12 00:20:57;;;;;;;3.07;0.27;;;;;;;;;;5039798;28;20208;-59
2021/03/12 00:23:23;;;;;;;0.10;0.10;;;;;;;;;;5034676;28;20245;-60
2021/03/12 00:25:51;;;;;;;0.63;0.57;;;;;;;;;;5036872;28;20199;-60
2021/03/12 00:28:18;;;;;;;0.07;0.07;;;;;;;;;;5033057;28;20226;-60
2021/03/12 00:30:46;;;;;;;0.10;0.10;;;;;;;;;;5032033;28;20197;-60
2021/03/12 00:33:13;;;;;;;0.00;0.00;;;;;;;;;;5034151;28;21015;-59
2021/03/12 00:35:42;;;;;;;9.13;0.47;;;;;;;;;;5031551;28;20490;-60
2021/03/12 00:38:09;;;;;;;0.10;0.10;;;;;;;;;;5024665;28;20818;-60
2021/03/12 00:40:38;;;;;;;1.10;1.10;;;;;;;;;;5031103;28;20622;-60
2021/03/12 00:43:04;;;;;;;1.27;0.43;;;;;;;;;;5032748;28;20238;-59
2021/03/12 00:45:35;;;;;;;0.30;0.30;;;;;;;;;;5031461;28;20199;-59
2021/03/12 00:48:02;;;;;;;0.37;0.37;;;;;;;;;;5029020;28;20203;-60
2021/03/12 00:50:31;;;;;;;0.10;0.10;;;;;;;;;;5041693;28;20187;-59
2021/03/12 00:52:59;;;;;;;0.00;0.00;;;;;;;;;;5032719;28;20212;-59
2021/03/12 00:55:25;;;;;;;0.30;0.23;;;;;;;;;;5041045;28;20192;-59
2021/03/12 00:57:53;;;;;;;0.00;0.00;;;;;;;;;;5031793;28;20203;-59
2021/03/12 01:00:22;;;;;;;0.87;0.87;;;;;;;;;;5033914;28;20720;-59
2021/03/12 01:02:48;;;;;;;0.77;0.77;;;;;;;;;;5035207;28;20215;-61
2021/03/12 01:05:17;;;;;;;0.63;0.63;;;;;;;;;;5038404;28;20770;-58
2021/03/12 01:07:44;;;;;;;0.10;0.10;;;;;;;;;;5034940;28;20475;-57
2021/03/12 01:10:14;;;;;;;0.30;0.30;;;;;;;;;;5034090;28;20216;-58
2021/03/12 01:12:42;;;;;;;2.10;0.80;;;;;;;;;;5036768;28;21204;-58
2021/03/12 01:15:11;;;;;;;0.57;0.50;;;;;;;;;;5033920;28;20191;-59
2021/03/12 01:17:38;;;;;;;2.00;0.40;;;;;;;;;;5022204;28;20233;-58
2021/03/12 01:20:08;;;;;;;0.27;0.10;;;;;;;;;;5040197;28;20267;-58
2021/03/12 01:22:35;;;;;;;0.00;0.00;;;;;;;;;;5040151;28;20308;-58
2021/03/12 01:25:02;;;;;;;0.50;0.17;;;;;;;;;;5030710;28;20336;-59
2021/03/12 01:27:38;;;;;;;0.10;0.10;;;;;;;;;;5029904;28;20199;-59
2021/03/12 01:30:24;;;;;;;0.17;0.17;;;;;;;;;;5031332;28;20713;-59
2021/03/12 01:32:55;;;;;;;1.37;0.67;;;;;;;;;;5027935;28;20508;-59
2021/03/12 01:35:21;;;;;;;0.10;0.10;;;;;;;;;;5031227;28;20766;-59
2021/03/12 01:37:48;;;;;;;0.00;0.00;;;;;;;;;;5029640;28;20753;-58
2021/03/12 01:40:16;;;;;;;0.03;0.03;;;;;;;;;;5026411;28;20928;-58
2021/03/12 01:42:44;;;;;;;0.40;0.40;;;;;;;;;;5033247;28;20983;-58
2021/03/12 01:45:20;;;;;;;0.10;0.10;;;;;;;;;;5032134;28;20202;-58
2021/03/12 01:47:47;;;;;;;2.57;1.90;;;;;;;;;;5044791;28;20190;-58
2021/03/12 01:50:15;;;;;;;3.73;1.30;;;;;;;;;;5036457;28;20195;-58
2021/03/12 01:52:42;;;;;;;0.00;0.00;;;;;;;;;;5037814;28;20901;-58
2021/03/12 01:55:14;;;;;;;0.30;0.20;;;;;;;;;;5033708;28;20497;-59
2021/03/12 01:57:40;;;;;;;0.50;0.50;;;;;;;;;;5027805;28;20237;-59
2021/03/12 02:00:07;;;;;;;2.53;0.77;;;;;;;;;;5036717;28;20212;-59
2021/03/12 02:02:34;;;;;;;1.33;0.70;;;;;;;;;;5027895;28;20741;-59
2021/03/12 02:05:00;;;;;;;0.10;0.10;;;;;;;;;;5029817;28;20273;-58
2021/03/12 02:07:27;;;;;;;0.10;0.10;;;;;;;;;;5034907;28;20198;-59
2021/03/12 02:09:54;;;;;;;0.50;0.10;;;;;;;;;;5037264;28;20883;-59
2021/03/12 02:12:25;;;;;;;0.10;0.10;;;;;;;;;;5034209;28;20186;-59
2021/03/12 02:15:06;;;;;;;0.80;0.57;;;;;;;;;;5034186;28;20198;-58
2021/03/12 02:17:37;;;;;;;1.80;1.37;;;;;;;;;;5029534;28;20186;-58
2021/03/12 02:20:22;;;;;;;4.17;0.60;;;;;;;;;;5030251;28;20278;-58
2021/03/12 02:22:51;;;;;;;0.13;0.13;;;;;;;;;;5035393;28;20234;-59
2021/03/12 02:25:19;;;;;;;0.63;0.57;;;;;;;;;;5034258;28;20827;-58
2021/03/12 02:27:46;;;;;;;1.33;0.23;;;;;;;;;;5032158;28;20744;-59
2021/03/12 02:30:15;;;;;;;0.10;0.10;;;;;;;;;;5036257;28;20232;-58
2021/03/12 02:32:43;;;;;;;0.10;0.10;;;;;;;;;;5036800;28;20187;-59
2021/03/12 02:35:17;;;;;;;0.03;0.03;;;;;;;;;;5035446;28;20215;-59
2021/03/12 02:37:44;;;;;;;0.03;0.03;;;;;;;;;;5032146;28;20187;-59
2021/03/12 02:40:13;;;;;;;0.10;0.10;;;;;;;;;;5046059;28;20204;-58
2021/03/12 02:42:41;;;;;;;0.00;0.00;;;;;;;;;;5035687;28;20533;-58
2021/03/12 02:45:09;;;;;;;0.00;0.00;;;;;;;;;;5034770;28;20180;-59
2021/03/12 02:47:36;;;;;;;0.00;0.00;;;;;;;;;;5033177;28;20195;-58
2021/03/12 02:50:04;;;;;;;0.00;0.00;;;;;;;;;;5037126;28;20266;-58
2021/03/12 02:52:31;;;;;;;0.10;0.10;;;;;;;;;;5035867;28;20195;-61
2021/03/12 02:54:59;;;;;;;0.13;0.13;;;;;;;;;;5031794;28;20222;-61
2021/03/12 03:00:05;;;;;;;0.20;0.20;;;;;;;;;;4837937;22;20258;-59
2021/03/12 03:02:32;;;;;;;0.07;0.07;;;;;;;;;;5007786;28;20294;-59
2021/03/12 03:05:01;;;;;;;2.40;0.97;;;;;;;;;;5017735;28;20247;-59
2021/03/12 03:07:28;;;;;;;1.03;0.93;;;;;;;;;;5015020;28;20181;-59
2021/03/12 03:09:54;;;;;;;0.23;0.23;;;;;;;;;;5018766;28;20335;-59
2021/03/12 03:12:23;;;;;;;0.00;0.00;;;;;;;;;;5014327;28;20183;-59
2021/03/12 03:14:51;;;;;;;1.60;0.77;;;;;;;;;;5016306;28;20278;-59
2021/03/12 03:17:18;;;;;;;0.10;0.10;;;;;;;;;;5018150;28;20693;-59
2021/03/12 03:19:47;;;;;;;1.40;1.00;;;;;;;;;;5016689;28;20198;-59
2021/03/12 03:22:14;;;;;;;0.10;0.10;;;;;;;;;;5016936;28;20211;-59
2021/03/12 03:24:40;;;;;;;0.00;0.00;;;;;;;;;;5016165;28;20195;-59
2021/03/12 03:27:11;;;;;;;0.20;0.20;;;;;;;;;;5007439;28;20646;-59
2021/03/12 03:29:38;;;;;;;0.00;0.00;;;;;;;;;;5011840;28;20197;-59
2021/03/12 03:32:05;;;;;;;0.20;0.20;;;;;;;;;;5008584;28;20194;-59
2021/03/12 03:34:31;;;;;;;0.10;0.10;;;;;;;;;;5007757;28;20229;-59
2021/03/12 03:36:58;;;;;;;0.10;0.10;;;;;;;;;;5011970;28;20199;-59
2021/03/12 03:39:25;;;;;;;24.47;9.13;;;;;;;;;;5010887;28;20250;-59
2021/03/12 03:41:53;;;;;;;0.30;0.30;;;;;;;;;;5016346;28;20284;-59
2021/03/12 03:44:26;;;;;;;0.10;0.10;;;;;;;;;;5012620;28;20220;-59
2021/03/12 03:46:55;;;;;;;0.20;0.20;;;;;;;;;;5013661;28;20191;-59
2021/03/12 03:49:23;;;;;;;0.30;0.30;;;;;;;;;;5011455;28;20694;-59
2021/03/12 03:51:50;;;;;;;1.07;1.07;;;;;;;;;;5009969;28;20191;-60
2021/03/12 03:54:17;;;;;;;0.10;0.10;;;;;;;;;;5011842;28;20197;-59
2021/03/12 03:56:45;;;;;;;0.07;0.07;;;;;;;;;;5009233;28;20712;-59
2021/03/12 03:59:13;;;;;;;1.40;0.37;;;;;;;;;;5013070;28;21074;-60
2021/03/12 04:01:40;;;;;;;0.20;0.20;;;;;;;;;;5012815;28;20321;-60
2021/03/12 04:04:08;;;;;;;0.43;0.43;;;;;;;;;;5013363;28;20212;-60
2021/03/12 04:06:35;;;;;;;0.10;0.10;;;;;;;;;;5014036;28;20269;-59
2021/03/12 04:09:04;;;;;;;0.77;0.63;;;;;;;;;;5012738;28;20192;-59
2021/03/12 04:11:33;;;;;;;0.57;0.30;;;;;;;;;;5009112;28;20210;-59
2021/03/12 04:14:01;;;;;;;0.10;0.10;;;;;;;;;;5009783;28;20196;-59
2021/03/12 04:16:27;;;;;;;0.10;0.10;;;;;;;;;;5006008;28;20677;-59
2021/03/12 04:18:54;;;;;;;1.80;0.97;;;;;;;;;;5006394;28;20184;-59
2021/03/12 04:21:21;;;;;;;0.10;0.10;;;;;;;;;;5011348;28;20188;-59
2021/03/12 04:23:48;;;;;;;0.30;0.30;;;;;;;;;;5016794;28;20230;-59
2021/03/12 04:26:14;;;;;;;0.10;0.10;;;;;;;;;;5011789;28;20920;-59
2021/03/12 04:28:41;;;;;;;0.00;0.00;;;;;;;;;;5006424;28;20188;-59
2021/03/12 04:31:07;;;;;;;0.10;0.10;;;;;;;;;;5009340;28;20185;-60
2021/03/12 04:33:34;;;;;;;0.07;0.07;;;;;;;;;;5010415;28;20184;-60
2021/03/12 04:36:01;;;;;;;0.10;0.10;;;;;;;;;;5010330;28;20227;-59
2021/03/12 04:38:28;;;;;;;0.10;0.10;;;;;;;;;;5012565;28;20584;-59
2021/03/12 04:40:55;;;;;;;0.10;0.10;;;;;;;;;;5011458;28;20334;-59
2021/03/12 04:43:21;;;;;;;0.10;0.10;;;;;;;;;;5011555;28;20212;-59
2021/03/12 04:45:48;;;;;;;0.10;0.10;;;;;;;;;;5006519;28;20184;-60
2021/03/12 04:48:16;;;;;;;0.10;0.10;;;;;;;;;;5006558;28;20184;-60
2021/03/12 04:50:42;;;;;;;0.10;0.10;;;;;;;;;;5011344;28;20751;-59
2021/03/12 04:53:09;;;;;;;0.10;0.10;;;;;;;;;;5005483;28;20193;-60
2021/03/12 04:55:36;;;;;;;0.10;0.10;;;;;;;;;;5006646;28;20261;-59
2021/03/12 04:58:06;;;;;;;1.53;1.50;;;;;;;;;;5008501;28;20225;-59
2021/03/12 05:00:32;;;;;;;0.10;0.10;;;;;;;;;;5007850;28;20231;-59
2021/03/12 05:03:00;;;;;;;0.30;0.30;;;;;;;;;;5005897;28;20265;-59
2021/03/12 05:05:27;;;;;;;0.10;0.10;;;;;;;;;;5006745;28;20211;-59
2021/03/12 05:07:54;;;;;;;0.23;0.23;;;;;;;;;;5007564;28;20246;-59
2021/03/12 05:10:21;;;;;;;0.37;0.37;;;;;;;;;;5012861;28;20188;-58
2021/03/12 05:12:47;;;;;;;0.10;0.10;;;;;;;;;;5008690;28;20196;-59
2021/03/12 05:15:14;;;;;;;0.10;0.10;;;;;;;;;;5012181;28;20199;-60
2021/03/12 05:17:41;;;;;;;0.10;0.10;;;;;;;;;;5012304;28;20218;-58
2021/03/12 05:20:07;;;;;;;0.10;0.10;;;;;;;;;;5004165;28;20859;-59
2021/03/12 05:22:34;;;;;;;0.10;0.10;;;;;;;;;;5009524;28;20796;-58
2021/03/12 05:25:01;;;;;;;0.13;0.13;;;;;;;;;;5014839;28;20230;-58
2021/03/12 05:27:27;;;;;;;0.10;0.10;;;;;;;;;;5008974;28;20214;-58
2021/03/12 05:29:54;;;;;;;0.10;0.10;;;;;;;;;;5009013;28;20186;-59
2021/03/12 05:32:20;;;;;;;0.10;0.10;;;;;;;;;;4994205;28;20192;-59
2021/03/12 05:34:47;;;;;;;0.00;0.00;;;;;;;;;;5009282;28;20193;-58
2021/03/12 05:37:13;;;;;;;0.10;0.10;;;;;;;;;;5005585;28;20191;-59
2021/03/12 05:39:40;;;;;;;0.10;0.10;;;;;;;;;;5004478;28;20175;-59
2021/03/12 05:42:07;;;;;;;1.17;1.17;;;;;;;;;;5006871;28;20192;-58
2021/03/12 05:44:33;;;;;;;0.10;0.10;;;;;;;;;;5007281;28;20199;-58
2021/03/12 05:47:00;;;;;;;2.43;0.83;;;;;;;;;;5008559;28;20172;-59
2021/03/12 05:49:27;;;;;;;0.50;0.50;;;;;;;;;;5011266;28;20295;-58
2021/03/12 05:51:54;;;;;;;0.47;0.30;;;;;;;;;;5005665;28;20194;-59
2021/03/12 05:54:20;;;;;;;0.97;0.97;;;;;;;;;;4998792;28;20209;-59
2021/03/12 05:56:48;;;;;;;1.33;1.23;;;;;;;;;;5009808;28;20572;-58
2021/03/12 05:59:15;;;;;;;14.53;6.30;;;;;;;;;;5008026;28;20176;-59
2021/03/12 06:01:41;;;;;;;1.77;1.00;;;;;;;;;;5005320;28;20199;-59
2021/03/12 06:04:08;;;;;;;0.50;0.50;;;;;;;;;;5004232;28;20222;-59
2021/03/12 06:06:37;;;;;;;2.00;2.00;;;;;;;;;;5015260;28;20187;-59
2021/03/12 06:09:05;;;;;;;0.10;0.10;;;;;;;;;;5002862;28;20192;-59
2021/03/12 06:11:32;;;;;;;0.10;0.10;;;;;;;;;;5003759;28;20182;-58
2021/03/12 06:13:59;;;;;;;0.03;0.03;;;;;;;;;;5003579;28;20302;-59
2021/03/12 06:16:26;;;;;;;0.20;0.20;;;;;;;;;;5009315;28;20184;-59
2021/03/12 06:19:11;;;;;;;7.03;0.53;;;;;;;;;;5010398;28;20191;-59
2021/03/12 06:21:39;;;;;;;0.60;0.60;;;;;;;;;;5007439;28;20733;-59
2021/03/12 06:24:24;;;;;;;0.57;0.57;;;;;;;;;;5010025;28;20273;-59
2021/03/12 06:26:50;;;;;;;4.73;2.00;;;;;;;;;;4991939;28;20188;-59
2021/03/12 06:29:17;;;;;;;0.30;0.30;;;;;;;;;;5012345;28;20187;-59
2021/03/12 06:31:53;;;;;;;0.23;0.20;;;;;;;;;;5001223;28;20209;-59
2021/03/12 13:33:02;;;;;;;3.30;0.20;;;;;;;;;;5088299;27;20647;-59
2021/03/12 13:35:28;;;;;;;0.00;0.00;;;;;;;;;;5078266;28;20952;-59
2021/03/12 13:37:55;;;;;;;0.37;0.00;;;;;;;;;;5081824;28;20704;-58
2021/03/12 13:40:21;;;;;;;3.97;0.87;;;;;;;;;;5082010;28;20185;-59
2021/03/12 13:42:49;;;;;;;0.67;0.63;;;;;;;;;;5088086;28;21003;-59
2021/03/12 13:45:16;;;;;;;0.00;0.00;;;;;;;;;;5089128;28;20172;-60
2021/03/12 13:47:42;;;;;;;0.00;0.00;;;;;;;;;;5091124;28;20267;-59
2021/03/12 13:50:11;;;;;;;1.27;0.10;;;;;;;;;;5092351;28;20939;-59
2021/03/12 13:52:38;;;;;;;0.00;0.00;;;;;;;;;;5093638;28;20204;-60
2021/03/12 13:55:05;;;;;;;0.00;0.00;;;;;;;;;;5086394;28;20177;-60
2021/03/12 13:57:32;;;;;;;0.00;0.00;;;;;;;;;;5088157;28;20285;-60
2021/03/12 13:59:59;;;;;;;0.10;0.10;;;;;;;;;;5080559;28;20312;-60
2021/03/12 14:02:25;;;;;;;0.00;0.00;;;;;;;;;;5081991;28;20204;-60
2021/03/12 14:04:52;;;;;;;0.00;0.00;;;;;;;;;;5087708;28;20181;-60
2021/03/12 14:07:18;;;;;;;0.10;0.10;;;;;;;;;;5088261;28;20182;-59
2021/03/12 14:09:45;;;;;;;0.00;0.00;;;;;;;;;;5088402;28;20827;-60
2021/03/12 14:12:14;;;;;;;1.17;0.30;;;;;;;;;;5087809;28;20201;-60
2021/03/12 14:14:41;;;;;;;0.83;0.10;;;;;;;;;;5084385;28;21149;-59
2021/03/12 14:17:08;;;;;;;0.37;0.17;;;;;;;;;;5086633;28;20182;-59
2021/03/12 14:19:34;;;;;;;0.00;0.00;;;;;;;;;;5079658;28;20186;-59
2021/03/12 14:22:01;;;;;;;2.63;0.27;;;;;;;;;;5079880;28;20251;-59
2021/03/12 14:24:28;;;;;;;0.30;0.10;;;;;;;;;;5086661;28;20779;-59
2021/03/12 14:26:55;;;;;;;3.30;0.83;;;;;;;;;;5085543;28;20407;-59
2021/03/12 14:29:22;;;;;;;0.00;0.00;;;;;;;;;;5097878;28;20185;-59
2021/03/12 14:31:49;;;;;;;1.93;1.77;;;;;;;;;;5088612;28;20727;-60
2021/03/12 14:34:16;;;;;;;0.50;0.10;;;;;;;;;;5082442;28;20206;-59
2021/03/12 14:36:42;;;;;;;0.53;0.23;;;;;;;;;;5087953;28;20183;-59
2021/03/12 14:39:09;;;;;;;0.00;0.00;;;;;;;;;;5091564;28;20186;-60
2021/03/12 14:41:37;;;;;;;0.00;0.00;;;;;;;;;;5093445;28;20188;-60
2021/03/12 14:44:07;;;;;;;0.00;0.00;;;;;;;;;;5078955;28;20201;-59
2021/03/12 14:46:33;;;;;;;0.00;0.00;;;;;;;;;;5074723;28;20196;-59
2021/03/12 14:49:00;;;;;;;0.20;0.20;;;;;;;;;;5074038;28;20182;-60
2021/03/12 14:51:27;;;;;;;0.03;0.03;;;;;;;;;;5077756;28;20234;-59
2021/03/12 14:53:54;;;;;;;0.00;0.00;;;;;;;;;;5075691;28;20190;-59
2021/03/12 14:56:22;;;;;;;0.00;0.00;;;;;;;;;;5075294;28;20189;-60
2021/03/12 14:58:49;;;;;;;0.00;0.00;;;;;;;;;;5075212;28;20179;-59
2021/03/12 15:01:16;;;;;;;0.03;0.00;;;;;;;;;;5074504;28;20190;-59
2021/03/12 15:03:42;;;;;;;0.20;0.17;;;;;;;;;;5078145;28;20923;-60
2021/03/12 15:06:09;;;;;;;0.10;0.10;;;;;;;;;;5078835;28;20554;-59
2021/03/12 15:08:35;;;;;;;0.97;0.97;;;;;;;;;;5073632;28;21050;-59
2021/03/12 15:11:02;;;;;;;1.33;0.47;;;;;;;;;;5074465;28;20192;-60
2021/03/12 15:13:30;;;;;;;0.77;0.63;;;;;;;;;;5070674;28;20201;-65
2021/03/12 15:15:56;;;;;;;0.00;0.00;;;;;;;;;;5085064;28;20680;-65
2021/03/12 15:18:23;;;;;;;1.40;0.50;;;;;;;;;;5075028;28;20196;-66
2021/03/12 15:20:50;;;;;;;0.00;0.00;;;;;;;;;;5071179;28;20866;-66
2021/03/12 15:23:16;;;;;;;0.10;0.10;;;;;;;;;;5080975;28;20532;-65
2021/03/12 15:25:43;;;;;;;0.67;0.20;;;;;;;;;;5072232;28;20375;-65
2021/03/12 15:28:10;;;;;;;0.00;0.00;;;;;;;;;;5075379;28;20653;-65
2021/03/12 15:30:37;;;;;;;0.73;0.23;;;;;;;;;;5074682;28;20188;-66
2021/03/12 15:33:04;;;;;;;0.03;0.00;;;;;;;;;;5068096;28;20808;-65
2021/03/12 15:35:30;;;;;;;0.37;0.30;;;;;;;;;;5070975;28;20655;-65
2021/03/12 15:37:57;;;;;;;0.67;0.10;;;;;;;;;;5076186;28;20717;-65
2021/03/12 15:40:24;;;;;;;0.53;0.53;;;;;;;;;;5075764;28;20304;-65
2021/03/12 15:42:51;;;;;;;0.47;0.43;;;;;;;;;;5070688;28;20300;-65
2021/03/12 15:45:18;;;;;;;0.50;0.37;;;;;;;;;;5072466;28;20726;-65
2021/03/12 15:47:45;;;;;;;0.20;0.10;;;;;;;;;;5073708;28;20289;-66
2021/03/12 15:50:13;;;;;;;1.80;0.10;;;;;;;;;;5072688;28;20201;-65
2021/03/12 15:52:39;;;;;;;0.00;0.00;;;;;;;;;;5075038;28;20286;-65
2021/03/12 15:55:06;;;;;;;0.13;0.10;;;;;;;;;;5069824;28;20355;-65
2021/03/12 15:57:33;;;;;;;0.30;0.00;;;;;;;;;;5066440;28;21242;-65
2021/03/12 16:00:00;;;;;;;0.00;0.00;;;;;;;;;;5076837;28;20255;-66
2021/03/12 16:02:28;;;;;;;0.50;0.40;;;;;;;;;;5073083;28;20259;-64
2021/03/12 16:04:55;;;;;;;4.90;0.20;;;;;;;;;;5071282;28;21128;-65
2021/03/12 16:07:21;;;;;;;0.20;0.10;;;;;;;;;;5078327;28;20190;-66
2021/03/12 16:09:48;;;;;;;5.97;0.57;;;;;;;;;;5075321;28;20192;-65
2021/03/12 16:12:14;;;;;;;0.00;0.00;;;;;;;;;;5069166;28;20308;-65
2021/03/12 16:14:41;;;;;;;1.90;0.83;;;;;;;;;;5073452;28;20197;-65
2021/03/12 16:17:07;;;;;;;0.03;0.03;;;;;;;;;;5071231;28;20195;-65
2021/03/12 16:19:34;;;;;;;0.00;0.00;;;;;;;;;;5078658;28;20189;-66
2021/03/12 16:22:01;;;;;;;0.23;0.13;;;;;;;;;;5066771;28;20653;-65
2021/03/12 16:24:28;;;;;;;0.40;0.10;;;;;;;;;;5075991;28;20186;-66
2021/03/12 16:26:56;;;;;;;0.30;0.20;;;;;;;;;;5081339;28;20182;-66
2021/03/12 16:29:23;;;;;;;0.00;0.00;;;;;;;;;;5070093;28;20200;-65
2021/03/12 16:31:49;;;;;;;0.27;0.27;;;;;;;;;;5076810;28;20260;-65
2021/03/12 16:34:16;;;;;;;0.00;0.00;;;;;;;;;;5074043;28;20196;-65
2021/03/12 16:36:42;;;;;;;0.50;0.10;;;;;;;;;;5081105;28;20190;-65
2021/03/12 16:39:09;;;;;;;0.00;0.00;;;;;;;;;;5077068;28;20214;-65
2021/03/12 16:41:36;;;;;;;0.00;0.00;;;;;;;;;;5073074;28;20935;-65
2021/03/12 16:44:02;;;;;;;3.47;0.33;;;;;;;;;;5072082;28;20197;-65
2021/03/12 16:46:29;;;;;;;1.03;0.50;;;;;;;;;;5079661;28;20185;-65
2021/03/12 16:48:56;;;;;;;1.00;0.53;;;;;;;;;;5079278;28;20389;-65
2021/03/12 16:51:22;;;;;;;0.00;0.00;;;;;;;;;;5071428;28;20255;-65
2021/03/12 16:53:49;;;;;;;0.00;0.00;;;;;;;;;;5074473;28;20212;-65
2021/03/12 16:56:15;;;;;;;5.83;0.40;;;;;;;;;;5071668;28;20195;-65
2021/03/12 16:58:42;;;;;;;0.00;0.00;;;;;;;;;;5072607;28;21179;-65
2021/03/12 17:01:10;;;;;;;0.10;0.10;;;;;;;;;;5071944;28;20213;-66
2021/03/12 17:03:36;;;;;;;0.30;0.30;;;;;;;;;;5070271;28;20194;-65
2021/03/12 17:06:03;;;;;;;0.00;0.00;;;;;;;;;;5070162;28;20607;-65
2021/03/12 17:08:31;;;;;;;0.40;0.40;;;;;;;;;;5065115;28;20201;-64
2021/03/12 17:10:58;;;;;;;0.10;0.10;;;;;;;;;;5064708;28;20194;-65
2021/03/12 17:13:24;;;;;;;0.93;0.13;;;;;;;;;;5060628;28;20245;-66
2021/03/12 17:15:52;;;;;;;0.00;0.00;;;;;;;;;;5074644;28;20204;-66
2021/03/12 17:18:19;;;;;;;0.03;0.03;;;;;;;;;;5064229;28;20192;-64
2021/03/12 17:20:46;;;;;;;0.00;0.00;;;;;;;;;;5068970;28;20695;-65
2021/03/12 17:23:12;;;;;;;0.63;0.57;;;;;;;;;;5067366;28;20196;-65
2021/03/12 17:25:39;;;;;;;0.00;0.00;;;;;;;;;;5072425;28;20175;-65
2021/03/12 17:28:06;;;;;;;0.13;0.00;;;;;;;;;;5071084;28;20189;-65
2021/03/12 17:30:32;;;;;;;0.00;0.00;;;;;;;;;;5070031;28;20201;-65
2021/03/12 17:32:59;;;;;;;2.77;0.37;;;;;;;;;;5071660;28;20235;-65
2021/03/12 17:35:26;;;;;;;0.00;0.00;;;;;;;;;;5067284;28;20306;-65
2021/03/12 17:37:53;;;;;;;0.00;0.00;;;;;;;;;;5077215;28;20822;-65
2021/03/12 17:40:19;;;;;;;1.70;0.40;;;;;;;;;;5067117;28;20713;-65
2021/03/12 17:42:46;;;;;;;1.70;0.37;;;;;;;;;;5071646;28;20254;-65
2021/03/12 17:45:13;;;;;;;0.00;0.00;;;;;;;;;;5070280;28;20959;-66
2021/03/12 17:47:39;;;;;;;0.00;0.00;;;;;;;;;;5069332;28;20174;-65
2021/03/12 17:50:07;;;;;;;0.00;0.00;;;;;;;;;;5068434;28;20715;-65
2021/03/12 17:52:34;;;;;;;0.00;0.00;;;;;;;;;;5063711;28;20997;-65
2021/03/12 17:55:01;;;;;;;0.10;0.10;;;;;;;;;;5066534;28;20190;-65
2021/03/12 17:57:27;;;;;;;0.00;0.00;;;;;;;;;;5078344;28;20242;-65
2021/03/12 17:59:54;;;;;;;0.20;0.10;;;;;;;;;;5071375;28;20183;-65
2021/03/12 18:02:21;;;;;;;0.00;0.00;;;;;;;;;;5069572;28;20327;-65
2021/03/12 18:04:47;;;;;;;0.00;0.00;;;;;;;;;;5062915;28;20178;-65
2021/03/12 18:07:14;;;;;;;0.00;0.00;;;;;;;;;;5068773;28;20185;-65
2021/03/12 18:09:40;;;;;;;1.33;0.57;;;;;;;;;;5075323;28;20200;-65
2021/03/12 18:12:07;;;;;;;0.00;0.00;;;;;;;;;;5065807;28;20206;-66
2021/03/12 18:14:34;;;;;;;0.37;0.37;;;;;;;;;;5062762;28;20595;-65
2021/03/12 18:17:00;;;;;;;2.43;0.10;;;;;;;;;;5071675;28;20573;-65
2021/03/12 18:19:28;;;;;;;0.00;0.00;;;;;;;;;;5068917;28;20194;-64
2021/03/12 18:21:55;;;;;;;0.00;0.00;;;;;;;;;;5075845;28;20200;-65
2021/03/12 18:24:22;;;;;;;4.30;1.13;;;;;;;;;;5073094;28;20244;-65
2021/03/12 18:26:48;;;;;;;0.77;0.40;;;;;;;;;;5066189;28;20780;-65
2021/03/12 18:29:15;;;;;;;0.00;0.00;;;;;;;;;;5069885;28;20189;-64
2021/03/12 18:31:41;;;;;;;0.00;0.00;;;;;;;;;;5079596;28;20678;-65
2021/03/12 18:34:08;;;;;;;0.00;0.00;;;;;;;;;;5070695;28;20827;-65
2021/03/12 18:36:34;;;;;;;0.20;0.20;;;;;;;;;;5067333;28;20190;-64
2021/03/12 18:39:01;;;;;;;0.67;0.37;;;;;;;;;;5070490;28;20201;-64
2021/03/12 18:41:28;;;;;;;0.20;0.20;;;;;;;;;;5072730;28;20309;-65
2021/03/12 18:43:55;;;;;;;0.00;0.00;;;;;;;;;;5073059;28;20186;-64
2021/03/12 18:46:21;;;;;;;0.77;0.10;;;;;;;;;;5078624;28;20900;-65
2021/03/12 18:48:48;;;;;;;0.00;0.00;;;;;;;;;;5065956;28;20213;-65
2021/03/12 18:51:14;;;;;;;0.00;0.00;;;;;;;;;;5076667;28;20237;-65
2021/03/12 18:53:41;;;;;;;0.93;0.40;;;;;;;;;;5074400;28;20331;-64
2021/03/12 18:56:08;;;;;;;0.00;0.00;;;;;;;;;;5069717;28;20193;-64
2021/03/12 18:58:35;;;;;;;2.03;0.00;;;;;;;;;;5077799;28;20193;-65
2021/03/12 19:01:02;;;;;;;0.00;0.00;;;;;;;;;;5079692;28;20181;-65
2021/03/12 19:03:28;;;;;;;6.67;0.40;;;;;;;;;;5075640;28;20265;-65
2021/03/12 19:05:55;;;;;;;0.00;0.00;;;;;;;;;;5077056;28;20189;-64
2021/03/12 19:08:21;;;;;;;0.57;0.10;;;;;;;;;;5070772;28;20179;-64
2021/03/12 19:10:48;;;;;;;0.00;0.00;;;;;;;;;;5072844;28;20862;-64
2021/03/12 19:13:15;;;;;;;0.83;0.00;;;;;;;;;;5079143;28;20984;-64
2021/03/12 19:15:42;;;;;;;0.00;0.00;;;;;;;;;;5070578;28;20200;-65
2021/03/12 19:18:09;;;;;;;0.10;0.10;;;;;;;;;;5081798;28;20984;-64
2021/03/12 19:20:35;;;;;;;0.00;0.00;;;;;;;;;;5071816;28;20618;-65
2021/03/12 19:23:02;;;;;;;0.30;0.30;;;;;;;;;;5072024;28;20190;-65
2021/03/12 19:25:29;;;;;;;0.00;0.00;;;;;;;;;;5072901;28;21004;-65
2021/03/12 19:27:56;;;;;;;0.30;0.30;;;;;;;;;;5077307;28;20190;-65
2021/03/12 19:30:23;;;;;;;1.43;0.07;;;;;;;;;;5074036;28;20197;-65
2021/03/12 19:32:50;;;;;;;1.23;0.20;;;;;;;;;;5073575;28;21002;-65
2021/03/12 19:35:17;;;;;;;0.00;0.00;;;;;;;;;;5073738;28;20615;-64
2021/03/12 19:37:45;;;;;;;0.00;0.00;;;;;;;;;;5080342;28;20190;-65
2021/03/12 19:40:12;;;;;;;0.20;0.00;;;;;;;;;;5076860;28;20191;-66
2021/03/12 19:42:39;;;;;;;0.00;0.00;;;;;;;;;;5071086;28;20239;-65
2021/03/12 19:45:06;;;;;;;0.20;0.20;;;;;;;;;;5073986;28;20284;-64
2021/03/12 19:47:33;;;;;;;0.00;0.00;;;;;;;;;;5076759;28;20513;-65
2021/03/12 19:50:00;;;;;;;0.40;0.20;;;;;;;;;;5072115;28;20198;-65
2021/03/12 19:52:26;;;;;;;0.07;0.07;;;;;;;;;;5065713;28;20214;-65
2021/03/12 19:54:53;;;;;;;0.00;0.00;;;;;;;;;;5065906;28;20174;-65
2021/03/12 19:57:20;;;;;;;0.00;0.00;;;;;;;;;;5067902;28;20209;-65
2021/03/12 19:59:47;;;;;;;0.03;0.00;;;;;;;;;;5068187;28;20792;-64
2021/03/12 20:02:13;;;;;;;2.03;0.40;;;;;;;;;;5066010;28;20186;-65
2021/03/12 20:04:40;;;;;;;0.20;0.17;;;;;;;;;;5069369;28;20197;-64
2021/03/12 20:07:06;;;;;;;0.00;0.00;;;;;;;;;;5067641;28;20197;-65
2021/03/12 20:09:33;;;;;;;0.23;0.17;;;;;;;;;;5070488;28;20270;-64
2021/03/12 20:11:59;;;;;;;0.00;0.00;;;;;;;;;;5073184;28;20217;-64
2021/03/12 20:14:26;;;;;;;1.73;0.53;;;;;;;;;;5063749;28;20186;-65
2021/03/12 20:16:52;;;;;;;0.50;0.50;;;;;;;;;;5067199;28;20189;-65
2021/03/12 20:19:19;;;;;;;0.00;0.00;;;;;;;;;;5069856;28;20321;-64
2021/03/12 20:21:46;;;;;;;0.50;0.50;;;;;;;;;;5068757;28;20213;-64
2021/03/12 20:24:13;;;;;;;0.00;0.00;;;;;;;;;;5074693;28;20299;-65
2021/03/12 20:26:40;;;;;;;0.00;0.00;;;;;;;;;;5072699;28;20190;-64
2021/03/12 20:29:07;;;;;;;0.00;0.00;;;;;;;;;;5082645;28;20272;-65
2021/03/12 20:31:34;;;;;;;0.00;0.00;;;;;;;;;;5071789;28;20353;-64
2021/03/12 20:34:00;;;;;;;0.00;0.00;;;;;;;;;;5067778;28;20673;-63
2021/03/12 20:36:28;;;;;;;0.10;0.10;;;;;;;;;;5075415;28;20613;-64
2021/03/12 20:38:55;;;;;;;0.00;0.00;;;;;;;;;;5075493;28;21105;-64
2021/03/12 20:41:22;;;;;;;0.00;0.00;;;;;;;;;;5075255;28;20883;-64
2021/03/12 20:43:49;;;;;;;0.00;0.00;;;;;;;;;;5075235;28;20590;-64
2021/03/12 20:46:16;;;;;;;0.53;0.17;;;;;;;;;;5069225;28;20232;-64
2021/03/12 20:48:43;;;;;;;0.00;0.00;;;;;;;;;;5075543;28;20191;-63
2021/03/12 20:51:10;;;;;;;0.00;0.00;;;;;;;;;;5071134;28;20194;-63
2021/03/12 20:53:36;;;;;;;0.00;0.00;;;;;;;;;;5075924;28;20221;-64
2021/03/12 20:56:03;;;;;;;0.00;0.00;;;;;;;;;;5069703;28;20178;-64
2021/03/12 20:58:30;;;;;;;0.00;0.00;;;;;;;;;;5075615;28;20196;-64
2021/03/12 21:00:57;;;;;;;0.00;0.00;;;;;;;;;;5073949;28;20179;-64
2021/03/12 21:03:24;;;;;;;0.00;0.00;;;;;;;;;;5073456;28;20202;-64
2021/03/12 21:05:50;;;;;;;0.00;0.00;;;;;;;;;;5070185;28;20250;-62
2021/03/12 21:08:17;;;;;;;0.97;0.87;;;;;;;;;;5071823;28;20296;-63
2021/03/12 21:10:44;;;;;;;0.00;0.00;;;;;;;;;;5074140;28;20199;-64
2021/03/12 21:13:11;;;;;;;0.00;0.00;;;;;;;;;;5073054;28;20202;-63
2021/03/12 21:15:37;;;;;;;0.00;0.00;;;;;;;;;;5075079;28;20182;-63
2021/03/12 21:18:04;;;;;;;0.00;0.00;;;;;;;;;;5071269;28;20196;-63
2021/03/12 21:20:31;;;;;;;0.00;0.00;;;;;;;;;;5071937;28;20181;-64
2021/03/12 21:22:57;;;;;;;0.00;0.00;;;;;;;;;;5075478;28;21005;-63
2021/03/12 21:25:24;;;;;;;0.00;0.00;;;;;;;;;;5072760;28;20679;-63
2021/03/12 21:27:51;;;;;;;0.23;0.23;;;;;;;;;;5077621;28;20191;-63
2021/03/12 21:30:17;;;;;;;0.00;0.00;;;;;;;;;;5075941;28;20210;-63
2021/03/12 21:32:44;;;;;;;0.00;0.00;;;;;;;;;;5072124;28;20358;-63
2021/03/12 21:35:11;;;;;;;0.07;0.07;;;;;;;;;;5072787;28;20182;-63
2021/03/12 21:37:38;;;;;;;0.00;0.00;;;;;;;;;;5068115;28;21017;-63
2021/03/12 21:40:06;;;;;;;0.00;0.00;;;;;;;;;;5071108;28;22032;-62
2021/03/12 21:42:33;;;;;;;0.00;0.00;;;;;;;;;;5070826;28;20191;-62
2021/03/12 21:45:01;;;;;;;0.00;0.00;;;;;;;;;;5069739;28;20187;-63